createdAt,value
2023-03-10T00:01:55.098Z,7.40
2023-03-10T00:04:23.145Z,7.50
2023-03-10T00:06:51.157Z,7.50
2023-03-10T00:09:19.233Z,7.50
2023-03-10T00:11:47.190Z,7.60
2023-03-10T00:14:15.485Z,7.60
2023-03-10T00:16:43.473Z,7.60
2023-03-10T00:19:12.868Z,7.70
2023-03-10T00:21:40.842Z,7.70
2023-03-10T00:24:10.090Z,7.70
2023-03-10T00:26:38.345Z,7.80
2023-03-10T00:29:06.474Z,7.80
2023-03-10T00:31:34.779Z,7.80
2023-03-10T00:34:02.762Z,7.80
2023-03-10T00:36:33.473Z,7.80
2023-03-10T00:39:02.427Z,7.80
2023-03-10T00:41:32.096Z,7.80
2023-03-10T00:44:00.877Z,7.80
2023-03-10T00:46:30.439Z,7.80
2023-03-10T00:48:58.379Z,7.90
2023-03-10T00:51:27.526Z,7.90
2023-03-10T00:53:57.624Z,7.90
2023-03-10T00:56:27.154Z,7.90
2023-03-10T00:58:57.120Z,7.90
2023-03-10T01:01:29.008Z,7.90
2023-03-10T01:04:00.300Z,7.90
2023-03-10T01:06:29.125Z,7.90
2023-03-10T01:08:58.431Z,7.90
2023-03-10T01:11:29.268Z,8.00
2023-03-10T01:13:59.880Z,8.00
2023-03-10T01:16:28.920Z,8.00
2023-03-10T01:18:57.402Z,8.00
2023-03-10T01:21:27.238Z,8.00
2023-03-10T01:23:55.401Z,8.00
2023-03-10T01:26:24.679Z,8.00
2023-03-10T01:28:52.899Z,8.00
2023-03-10T01:31:20.978Z,8.00
2023-03-10T01:33:49.057Z,8.00
2023-03-10T01:36:18.832Z,7.90
2023-03-10T01:38:48.196Z,8.00
2023-03-10T01:41:17.122Z,8.00
2023-03-10T01:43:47.391Z,7.90
2023-03-10T01:46:35.084Z,7.90
2023-03-10T01:49:12.620Z,8.00
2023-03-10T01:51:44.724Z,8.00
2023-03-10T01:54:17.757Z,7.90
2023-03-10T01:56:47.085Z,7.90
2023-03-10T01:59:16.524Z,7.90
2023-03-10T02:01:44.696Z,7.90
2023-03-10T02:04:19.566Z,7.90
2023-03-10T02:06:49.216Z,8.00
2023-03-10T02:09:18.949Z,8.00
2023-03-10T02:11:48.929Z,8.00
2023-03-10T02:14:19.472Z,8.00
2023-03-10T02:16:47.774Z,8.00
2023-03-10T02:19:28.952Z,8.00
2023-03-10T02:22:04.115Z,8.00
2023-03-10T02:24:39.858Z,8.00
2023-03-10T02:27:18.208Z,8.00
2023-03-10T02:29:58.788Z,8.00
2023-03-10T02:32:30.862Z,8.00
2023-03-10T02:34:58.806Z,8.00
2023-03-10T02:37:30.081Z,7.90
2023-03-10T02:39:58.916Z,7.90
2023-03-10T02:42:32.719Z,7.90
2023-03-10T02:45:01.721Z,8.00
2023-03-10T02:47:29.566Z,8.00
2023-03-10T02:49:57.504Z,8.00
2023-03-10T02:52:39.856Z,8.00
2023-03-10T02:55:08.594Z,8.00
2023-03-10T02:57:37.821Z,8.00
2023-03-10T03:00:06.955Z,8.00
2023-03-10T03:02:34.856Z,8.00
2023-03-10T03:05:02.932Z,7.90
2023-03-10T03:07:32.913Z,7.90
2023-03-10T03:10:01.525Z,7.80
2023-03-10T03:12:30.587Z,7.80
2023-03-10T03:14:59.908Z,7.80
2023-03-10T03:17:28.684Z,7.80
2023-03-10T03:19:56.810Z,7.80
2023-03-10T03:22:24.781Z,7.70
2023-03-10T03:24:52.917Z,7.70
2023-03-10T03:27:20.805Z,7.70
2023-03-10T03:29:48.724Z,7.70
2023-03-10T03:32:18.001Z,7.70
2023-03-10T03:34:45.930Z,7.60
2023-03-10T03:37:14.636Z,7.60
2023-03-10T03:39:42.686Z,7.60
2023-03-10T03:42:10.750Z,7.60
2023-03-10T03:44:49.774Z,7.60
2023-03-10T03:47:19.553Z,7.60
2023-03-10T03:49:47.509Z,7.60
2023-03-10T03:52:15.602Z,7.60
2023-03-10T03:54:43.518Z,7.50
2023-03-10T03:57:11.719Z,7.50
2023-03-10T03:59:39.705Z,7.50
2023-03-10T04:02:07.648Z,7.50
2023-03-10T04:04:37.191Z,7.50
2023-03-10T04:07:05.595Z,7.60
2023-03-10T04:09:33.758Z,7.60
2023-03-10T04:12:01.685Z,7.50
2023-03-10T04:14:30.539Z,7.60
2023-03-10T04:16:58.476Z,7.60
2023-03-10T04:19:26.548Z,7.60
2023-03-10T04:22:01.442Z,7.60
2023-03-10T04:24:31.466Z,7.60
2023-03-10T04:26:59.974Z,7.60
2023-03-10T04:29:28.001Z,7.70
2023-03-10T04:32:05.377Z,7.70
2023-03-10T04:34:36.156Z,7.80
2023-03-10T04:37:06.053Z,7.80
2023-03-10T04:39:34.733Z,7.80
2023-03-10T04:42:02.848Z,7.80
2023-03-10T04:44:31.740Z,7.80
2023-03-10T04:47:02.710Z,7.70
2023-03-10T04:49:31.280Z,7.80
2023-03-10T04:52:00.104Z,7.80
2023-03-10T04:54:30.440Z,7.80
2023-03-10T04:56:58.720Z,7.80
2023-03-10T04:59:27.416Z,7.80
2023-03-10T05:01:55.566Z,7.70
2023-03-10T05:04:23.937Z,7.80
2023-03-10T05:06:53.959Z,7.80
2023-03-10T05:09:30.576Z,7.80
2023-03-10T05:11:58.634Z,7.80
2023-03-10T05:14:30.748Z,7.80
2023-03-10T05:16:58.674Z,7.80
2023-03-10T05:19:28.663Z,7.80
2023-03-10T05:21:59.360Z,7.80
2023-03-10T05:24:27.677Z,7.90
2023-03-10T05:26:57.113Z,7.90
2023-03-10T05:29:26.047Z,7.90
2023-03-10T05:31:59.149Z,7.90
2023-03-10T05:34:32.745Z,7.90
2023-03-10T05:37:03.388Z,7.90
2023-03-10T05:39:31.509Z,7.90
2023-03-10T05:42:04.321Z,7.90
2023-03-10T05:44:34.799Z,7.90
2023-03-10T05:47:04.730Z,7.80
2023-03-10T05:49:33.441Z,7.80
2023-03-10T05:52:01.605Z,7.90
2023-03-10T05:54:30.039Z,7.90
2023-03-10T05:56:58.768Z,7.90
2023-03-10T05:59:29.992Z,7.80
2023-03-10T06:01:57.989Z,7.90
2023-03-10T06:04:28.436Z,7.90
2023-03-10T06:06:56.660Z,7.90
2023-03-10T06:09:24.539Z,7.90
2023-03-10T06:11:53.040Z,7.90
2023-03-10T06:14:21.022Z,7.90
2023-03-10T06:16:51.654Z,7.90
2023-03-10T06:19:19.952Z,8.00
2023-03-10T06:21:48.043Z,8.00
2023-03-10T06:24:18.164Z,8.00
2023-03-10T06:26:46.057Z,8.00
2023-03-10T06:29:14.016Z,8.00
2023-03-10T06:31:41.970Z,8.00
2023-03-10T06:34:11.218Z,8.10
2023-03-10T06:36:40.302Z,8.10
2023-03-10T06:39:08.850Z,8.10
2023-03-10T06:41:37.273Z,8.20
2023-03-10T06:44:05.741Z,8.20
2023-03-10T06:46:33.633Z,8.20
2023-03-10T06:49:01.544Z,8.20
2023-03-10T06:51:30.740Z,8.20
2023-03-10T06:53:58.696Z,8.20
2023-03-10T06:56:26.679Z,8.30
2023-03-10T06:58:54.668Z,8.30
2023-03-10T07:01:25.505Z,8.40
2023-03-10T07:03:53.996Z,8.40
2023-03-10T07:06:22.365Z,8.50
2023-03-10T07:08:52.525Z,8.60
2023-03-10T07:11:22.196Z,8.90
2023-03-10T07:13:50.324Z,9.00
2023-03-10T07:16:18.994Z,9.00
2023-03-10T07:18:47.056Z,9.00
2023-03-10T07:21:18.531Z,9.00
2023-03-10T07:23:46.740Z,9.00
2023-03-10T07:26:18.615Z,9.00
2023-03-10T07:28:46.731Z,9.00
2023-03-10T07:31:16.206Z,9.00
2023-03-10T07:33:44.262Z,9.00
2023-03-10T07:36:14.843Z,9.00
2023-03-10T07:38:42.906Z,9.00
2023-03-10T07:41:12.396Z,9.00
2023-03-10T07:43:41.710Z,9.00
2023-03-10T07:46:14.152Z,8.90
2023-03-10T07:48:42.733Z,8.90
2023-03-10T07:51:10.698Z,8.90
2023-03-10T07:53:39.000Z,8.90
2023-03-10T07:56:07.865Z,8.90
2023-03-10T07:58:36.156Z,8.90
2023-03-10T08:01:06.903Z,8.90
2023-03-10T08:03:35.953Z,8.90
2023-03-10T08:06:05.550Z,9.00
2023-03-10T08:08:33.830Z,9.00
2023-03-10T08:11:03.779Z,9.00
2023-03-10T08:13:32.153Z,9.10
2023-03-10T08:16:01.976Z,9.20
2023-03-10T08:18:32.328Z,9.30
2023-03-10T08:21:00.311Z,9.30
2023-03-10T08:23:28.291Z,9.40
2023-03-10T08:25:56.263Z,9.40
2023-03-10T08:28:24.181Z,9.50
2023-03-10T08:31:03.740Z,9.50
2023-03-10T08:33:34.837Z,9.60
2023-03-10T08:36:04.769Z,9.60
2023-03-10T08:38:32.718Z,9.70
2023-03-10T08:41:10.804Z,9.60
2023-03-10T08:43:38.893Z,9.60
2023-03-10T08:46:08.826Z,9.60
2023-03-10T08:48:40.337Z,9.70
2023-03-10T08:51:18.476Z,9.70
2023-03-10T08:53:49.758Z,9.70
2023-03-10T08:56:19.202Z,9.70
2023-03-10T08:58:47.649Z,9.70
2023-03-10T09:01:17.897Z,9.80
2023-03-10T09:03:51.316Z,9.90
2023-03-10T09:06:19.434Z,9.80
2023-03-10T09:08:48.303Z,9.90
2023-03-10T09:11:18.691Z,9.90
2023-03-10T09:13:46.997Z,9.80
2023-03-10T09:16:14.982Z,9.80
2023-03-10T09:18:43.374Z,9.90
2023-03-10T09:21:14.828Z,10.10
2023-03-10T09:23:44.642Z,10.30
2023-03-10T09:26:12.747Z,10.60
2023-03-10T09:28:40.667Z,11.00
2023-03-10T09:31:09.753Z,11.40
2023-03-10T09:33:38.416Z,11.80
2023-03-10T09:36:07.890Z,12.20
2023-03-10T09:38:38.057Z,12.40
2023-03-10T09:41:23.103Z,12.50
2023-03-10T09:44:00.337Z,12.40
2023-03-10T09:46:33.228Z,12.20
2023-03-10T09:49:07.493Z,12.10
2023-03-10T09:51:36.419Z,12.20
2023-03-10T09:54:27.665Z,12.20
2023-03-10T09:56:57.046Z,12.10
2023-03-10T09:59:31.879Z,12.20
2023-03-10T10:02:02.962Z,12.20
2023-03-10T10:04:36.427Z,12.20
2023-03-10T10:07:12.516Z,12.30
2023-03-10T10:09:45.161Z,12.30
2023-03-10T10:12:15.092Z,12.40
2023-03-10T10:14:55.048Z,12.20
2023-03-10T10:17:39.222Z,12.10
2023-03-10T10:20:17.132Z,11.90
2023-03-10T10:22:45.555Z,11.80
2023-03-10T10:25:20.346Z,11.70
2023-03-10T10:27:51.758Z,11.70
2023-03-10T10:30:34.884Z,11.70
2023-03-10T10:33:04.468Z,11.70
2023-03-10T10:35:35.377Z,11.80
2023-03-10T10:38:06.836Z,12.20
2023-03-10T10:40:46.880Z,12.70
2023-03-10T10:43:17.705Z,13.00
2023-03-10T10:45:46.027Z,13.20
2023-03-10T10:48:34.065Z,13.40
2023-03-10T10:51:02.307Z,13.80
2023-03-10T10:53:34.363Z,14.10
2023-03-10T10:56:06.735Z,14.20
2023-03-10T10:58:36.623Z,14.40
2023-03-10T11:01:07.748Z,14.60
2023-03-10T11:03:38.032Z,14.60
2023-03-10T11:06:16.352Z,14.80
2023-03-10T11:08:50.735Z,14.80
2023-03-10T11:11:29.483Z,14.70
2023-03-10T11:14:16.222Z,14.70
2023-03-10T11:16:52.064Z,14.60
2023-03-10T11:19:27.512Z,14.50
2023-03-10T11:22:02.143Z,14.70
2023-03-10T11:24:36.031Z,14.80
2023-03-10T11:27:15.359Z,15.10
2023-03-10T11:29:59.740Z,15.50
2023-03-10T11:32:34.896Z,15.80
2023-03-10T11:35:15.987Z,15.90
2023-03-10T11:37:47.958Z,15.90
2023-03-10T11:40:20.567Z,16.10
2023-03-10T11:42:57.067Z,16.20
2023-03-10T11:45:31.693Z,16.10
2023-03-10T11:48:13.828Z,15.90
2023-03-10T11:50:47.898Z,15.60
2023-03-10T11:53:22.875Z,15.00
2023-03-10T11:55:52.166Z,14.50
2023-03-10T11:58:27.264Z,14.20
2023-03-10T12:00:55.675Z,13.80
2023-03-10T12:03:39.492Z,13.40
2023-03-10T12:06:12.876Z,13.30
2023-03-10T12:08:43.577Z,13.20
2023-03-10T12:11:16.970Z,13.10
2023-03-10T12:13:49.220Z,13.00
2023-03-10T12:16:23.173Z,13.00
2023-03-10T12:18:53.532Z,13.30
2023-03-10T12:21:23.547Z,13.40
2023-03-10T12:23:53.157Z,13.50
2023-03-10T12:26:59.501Z,13.60
2023-03-10T12:29:37.549Z,13.60
2023-03-10T12:32:07.252Z,13.50
2023-03-10T12:34:35.249Z,13.30
2023-03-10T12:37:09.522Z,13.10
2023-03-10T12:39:42.743Z,13.10
2023-03-10T12:42:31.332Z,13.00
2023-03-10T12:45:12.681Z,12.80
2023-03-10T12:47:53.818Z,12.60
2023-03-10T12:50:30.607Z,12.30
2023-03-10T12:53:06.528Z,12.10
2023-03-10T12:55:34.677Z,11.80
2023-03-10T12:58:09.719Z,11.00
2023-03-10T13:00:48.813Z,10.60
2023-03-10T13:03:27.119Z,9.90
2023-03-10T13:06:01.681Z,9.40
2023-03-10T13:08:37.635Z,9.10
2023-03-10T13:11:07.481Z,8.90
2023-03-10T13:13:37.140Z,8.70
2023-03-10T13:16:08.356Z,8.60
2023-03-10T13:18:36.863Z,8.50
2023-03-10T13:21:05.129Z,8.40
2023-03-10T13:23:35.627Z,8.30
2023-03-10T13:26:07.199Z,8.30
2023-03-10T13:28:36.522Z,8.20
2023-03-10T13:31:19.364Z,8.30
2023-03-10T13:33:53.910Z,8.50
2023-03-10T13:36:34.086Z,8.80
2023-03-10T13:39:03.748Z,9.20
2023-03-10T13:41:37.362Z,9.60
2023-03-10T13:44:05.536Z,9.90
2023-03-10T13:46:35.605Z,10.10
2023-03-10T13:49:06.885Z,10.20
2023-03-10T13:51:36.505Z,10.20
2023-03-10T13:54:20.494Z,10.20
2023-03-10T13:56:50.979Z,10.00
2023-03-10T13:59:22.672Z,9.90
2023-03-10T14:01:55.440Z,9.90
2023-03-10T14:04:42.911Z,9.90
2023-03-10T14:07:13.113Z,9.90
2023-03-10T14:09:41.247Z,10.10
2023-03-10T14:12:10.421Z,10.10
2023-03-10T14:14:39.503Z,10.10
2023-03-10T14:17:09.942Z,10.00
2023-03-10T14:19:53.160Z,10.10
2023-03-10T14:22:24.807Z,10.30
2023-03-10T14:24:53.101Z,10.40
2023-03-10T14:27:21.929Z,10.50
2023-03-10T14:29:51.749Z,10.40
2023-03-10T14:32:21.519Z,10.40
2023-03-10T14:34:49.928Z,10.50
2023-03-10T14:37:18.174Z,10.50
2023-03-10T14:39:46.185Z,10.50
2023-03-10T14:42:23.139Z,10.40
2023-03-10T14:44:51.244Z,10.40
2023-03-10T14:47:21.194Z,10.30
2023-03-10T14:49:49.873Z,10.20
2023-03-10T14:52:18.934Z,10.00
2023-03-10T14:54:47.310Z,9.90
2023-03-10T14:57:21.010Z,9.60
2023-03-10T14:59:49.376Z,9.50
2023-03-10T15:02:23.499Z,9.20
2023-03-10T15:04:51.978Z,9.10
2023-03-10T15:07:19.987Z,9.10
2023-03-10T15:09:49.514Z,9.00
2023-03-10T15:12:18.853Z,8.80
2023-03-10T15:14:53.110Z,8.70
2023-03-10T15:17:22.595Z,8.70
2023-03-10T15:19:50.571Z,8.60
2023-03-10T15:22:18.745Z,8.60
2023-03-10T15:24:46.763Z,8.60
2023-03-10T15:27:15.514Z,8.50
2023-03-10T15:29:43.413Z,8.60
2023-03-10T15:32:11.673Z,8.60
2023-03-10T15:34:41.443Z,8.50
2023-03-10T15:37:09.633Z,8.40
2023-03-10T15:39:37.662Z,8.30
2023-03-10T15:42:05.704Z,8.30
2023-03-10T15:44:33.643Z,8.30
2023-03-10T15:47:01.610Z,8.30
2023-03-10T15:49:29.576Z,8.30
2023-03-10T15:51:58.993Z,8.30
2023-03-10T15:54:26.924Z,8.30
2023-03-10T15:56:54.836Z,8.20
2023-03-10T15:59:22.856Z,8.20
2023-03-10T16:01:52.459Z,8.20
2023-03-10T16:04:21.247Z,8.20
2023-03-10T16:06:49.242Z,8.20
2023-03-10T16:09:18.696Z,8.20
2023-03-10T16:11:46.710Z,8.20
2023-03-10T16:14:14.637Z,8.20
2023-03-10T16:16:42.598Z,8.10
2023-03-10T16:19:10.737Z,8.10
2023-03-10T16:21:38.686Z,8.00
2023-03-10T16:24:06.881Z,8.10
2023-03-10T16:26:36.147Z,8.10
2023-03-10T16:29:04.504Z,8.00
2023-03-10T16:31:32.744Z,8.00
2023-03-10T16:34:00.685Z,8.00
2023-03-10T16:36:29.567Z,7.90
2023-03-10T16:38:58.118Z,7.90
2023-03-10T16:41:28.502Z,7.90
2023-03-10T16:43:58.894Z,7.80
2023-03-10T16:46:30.206Z,7.80
2023-03-10T16:49:00.173Z,7.80
2023-03-10T16:51:30.913Z,7.70
2023-03-10T16:54:00.346Z,7.70
2023-03-10T16:56:31.754Z,7.70
2023-03-10T16:59:01.272Z,7.70
2023-03-10T17:01:29.330Z,7.70
2023-03-10T17:03:58.111Z,7.70
2023-03-10T17:06:27.841Z,7.70
2023-03-10T17:08:56.194Z,7.70
2023-03-10T17:11:25.834Z,7.70
2023-03-10T17:13:55.658Z,7.70
2023-03-10T17:16:28.467Z,7.60
2023-03-10T17:18:56.842Z,7.60
2023-03-10T17:21:27.321Z,7.60
2023-03-10T17:23:55.638Z,7.60
2023-03-10T17:26:23.798Z,7.50
2023-03-10T17:28:52.550Z,7.50
2023-03-10T17:31:23.567Z,7.50
2023-03-10T17:33:53.822Z,7.40
2023-03-10T17:36:22.894Z,7.40
2023-03-10T17:38:53.674Z,7.40
2023-03-10T17:41:21.682Z,7.40
2023-03-10T17:43:49.954Z,7.40
2023-03-10T17:46:19.630Z,7.40
2023-03-10T17:48:48.201Z,7.40
2023-03-10T17:51:18.731Z,7.40
2023-03-10T17:53:47.188Z,7.40
2023-03-10T17:56:16.160Z,7.40
2023-03-10T17:58:44.566Z,7.40
2023-03-10T18:01:14.695Z,7.30
2023-03-10T18:03:42.908Z,7.30
2023-03-10T18:06:15.182Z,7.20
2023-03-10T18:08:44.547Z,7.20
2023-03-10T18:11:14.214Z,7.20
2023-03-10T18:13:42.378Z,7.20
2023-03-10T18:16:16.846Z,7.20
2023-03-10T18:18:45.260Z,7.20
2023-03-10T18:21:14.959Z,7.10
2023-03-10T18:23:44.713Z,7.20
2023-03-10T18:26:14.580Z,7.10
2023-03-10T18:28:43.088Z,7.10
2023-03-10T18:31:16.861Z,7.00
2023-03-10T18:33:44.797Z,7.00
2023-03-10T18:36:14.761Z,6.90
2023-03-10T18:38:44.669Z,6.90
2023-03-10T18:41:12.762Z,7.00
2023-03-10T18:43:40.863Z,7.00
2023-03-10T18:46:09.173Z,7.00
2023-03-10T18:48:37.138Z,6.90
2023-03-10T18:51:05.421Z,6.90
2023-03-10T18:53:33.609Z,6.90
2023-03-10T18:56:02.872Z,6.90
2023-03-10T18:58:32.415Z,6.90
2023-03-10T19:01:00.575Z,6.90
2023-03-10T19:03:29.758Z,6.90
2023-03-10T19:05:58.444Z,6.80
2023-03-10T19:08:27.161Z,6.80
2023-03-10T19:10:56.844Z,6.80
2023-03-10T19:13:27.583Z,6.70
2023-03-10T19:15:56.074Z,6.70
2023-03-10T19:18:24.652Z,6.70
2023-03-10T19:20:58.821Z,6.70
2023-03-10T19:23:27.842Z,6.60
2023-03-10T19:25:55.926Z,6.60
2023-03-10T19:28:23.913Z,6.60
2023-03-10T19:30:53.166Z,6.60
2023-03-10T19:33:21.282Z,6.50
2023-03-10T19:35:49.771Z,6.40
2023-03-10T19:38:17.702Z,6.40
2023-03-10T19:40:47.325Z,6.40
2023-03-10T19:43:16.247Z,6.40
2023-03-10T19:45:44.129Z,6.20
2023-03-10T19:48:13.358Z,6.10
2023-03-10T19:50:41.629Z,6.10
2023-03-10T19:53:09.586Z,5.90
2023-03-10T19:55:38.181Z,5.80
2023-03-10T19:58:07.170Z,5.70
2023-03-10T20:00:36.397Z,5.60
2023-03-10T20:03:04.520Z,5.60
2023-03-10T20:05:33.996Z,5.50
2023-03-10T20:08:02.396Z,5.40
2023-03-10T20:10:30.336Z,5.30
2023-03-10T20:12:58.775Z,5.30
2023-03-10T20:15:27.838Z,5.30
2023-03-10T20:17:55.746Z,5.20
2023-03-10T20:20:23.729Z,5.20
2023-03-10T20:22:54.106Z,5.20
2023-03-10T20:25:24.695Z,5.20
2023-03-10T20:27:54.703Z,5.10
2023-03-10T20:30:26.294Z,5.10
2023-03-10T20:32:55.151Z,5.00
2023-03-10T20:35:23.812Z,5.00
2023-03-10T20:37:51.757Z,5.00
2023-03-10T20:40:24.095Z,5.10
2023-03-10T20:42:55.194Z,5.00
2023-03-10T20:45:23.953Z,5.00
2023-03-10T20:47:53.201Z,5.00
2023-03-10T20:50:21.773Z,4.90
2023-03-10T20:52:50.144Z,4.90
2023-03-10T20:55:22.892Z,4.90
2023-03-10T20:57:52.781Z,5.00
2023-03-10T21:00:23.190Z,5.00
2023-03-10T21:02:53.122Z,4.90
2023-03-10T21:05:21.870Z,4.90
2023-03-10T21:07:50.192Z,4.90
2023-03-10T21:10:18.664Z,4.90
2023-03-10T21:12:47.900Z,4.90
2023-03-10T21:15:17.384Z,4.90
2023-03-10T21:17:45.644Z,4.90
2023-03-10T21:20:17.179Z,4.90
2023-03-10T21:22:45.333Z,4.80
2023-03-10T21:25:15.643Z,4.80
2023-03-10T21:27:44.245Z,4.70
2023-03-10T21:30:15.381Z,4.60
2023-03-10T21:32:43.374Z,4.60
2023-03-10T21:35:13.584Z,4.60
2023-03-10T21:37:42.568Z,4.50
2023-03-10T21:40:14.907Z,4.40
2023-03-10T21:42:43.364Z,4.40
2023-03-10T21:45:16.504Z,4.30
2023-03-10T21:47:44.548Z,4.30
2023-03-10T21:50:14.060Z,4.30
2023-03-10T21:52:42.101Z,4.20
2023-03-10T21:55:18.402Z,4.10
2023-03-10T21:57:46.311Z,4.00
2023-03-10T22:00:19.793Z,4.00
2023-03-10T22:02:48.262Z,3.90
2023-03-10T22:05:17.946Z,3.90
2023-03-10T22:07:46.538Z,3.90
2023-03-10T22:10:15.479Z,3.90
2023-03-10T22:12:43.465Z,4.00
2023-03-10T22:15:18.753Z,4.00
2023-03-10T22:17:47.077Z,4.00
2023-03-10T22:20:18.395Z,4.00
2023-03-10T22:22:47.069Z,4.00
2023-03-10T22:25:15.649Z,3.90
2023-03-10T22:27:44.826Z,3.90
2023-03-10T22:30:14.246Z,3.90
2023-03-10T22:32:43.578Z,3.90
2023-03-10T22:35:11.946Z,3.80
2023-03-10T22:37:41.627Z,3.70
2023-03-10T22:40:13.110Z,3.50
2023-03-10T22:42:41.420Z,3.40
2023-03-10T22:45:17.754Z,3.20
2023-03-10T22:52:25.772Z,2.90
2023-03-10T22:54:53.741Z,2.60
2023-03-10T22:57:21.660Z,2.50
2023-03-10T22:59:49.670Z,2.40
2023-03-10T23:02:17.568Z,2.30
2023-03-10T23:04:45.466Z,2.20
2023-03-10T23:07:13.471Z,2.20
2023-03-10T23:09:43.892Z,2.10
2023-03-10T23:12:11.969Z,2.10
2023-03-10T23:14:40.030Z,2.10
2023-03-10T23:17:08.258Z,2.00
2023-03-10T23:19:36.557Z,1.90
2023-03-10T23:22:04.788Z,1.80
2023-03-10T23:24:32.678Z,1.70
2023-03-10T23:27:01.961Z,1.60
2023-03-10T23:29:29.863Z,1.50
2023-03-10T23:31:57.799Z,1.50
2023-03-10T23:38:40.699Z,1.40
2023-03-10T23:41:09.001Z,1.40
2023-03-10T23:43:38.234Z,1.40
2023-03-10T23:46:07.326Z,1.30
2023-03-10T23:48:36.010Z,1.20
2023-03-10T23:51:04.428Z,1.20
2023-03-10T23:53:32.348Z,1.10
2023-03-10T23:56:00.361Z,1.10
2023-03-10T23:58:28.828Z,1.10
